Time;durP1;ratioP1;P1;durP2;ratioP2;P2;SDS_P1;SDS_P2;PMS_P1;PMS_P2;Temp;Humidity;BMP_temperature;BMP_pressure;BME280_temperature;BME280_humidity;BME280_pressure;Samples;Min_cycle;Max_cycle;Signal;HPM_P1;HPM_P2
2021/01/09 00:00:06;;;;;;;;;;;;;;;15.30;56.20;100272.13;4875184;29;1049;-73
2021/01/09 00:02:33;;;;;;;;;;;;;;;15.26;56.25;100270.56;4875449;29;1339;-73
2021/01/09 00:05:00;;;;;;;;;;;;;;;15.32;56.14;100267.66;4874200;29;983;-71
2021/01/09 00:07:30;;;;;;;;;;;;;;;15.25;55.94;100251.38;4858237;29;1382;-72
2021/01/09 00:09:57;;;;;;;;;;;;;;;15.25;55.96;100261.03;4875206;29;1081;-69
2021/01/09 00:12:24;;;;;;;;;;;;;;;15.24;55.90;100259.31;4873226;29;1247;-72
2021/01/09 00:14:50;;;;;;;;;;;;;;;15.23;55.84;100250.59;4875155;29;1159;-72
2021/01/09 00:17:17;;;;;;;;;;;;;;;15.23;55.94;100253.22;4866637;29;1982;-72
2021/01/09 00:19:43;;;;;;;;;;;;;;;15.21;55.88;100252.47;4875015;29;1364;-72
2021/01/09 00:22:09;;;;;;;;;;;;;;;15.19;55.89;100245.59;4875415;29;1278;-72
2021/01/09 00:24:36;;;;;;;;;;;;;;;15.21;56.01;100243.72;4875394;29;808;-73
2021/01/09 00:27:08;;;;;;;;;;;;;;;15.18;56.05;100238.63;4875466;29;1266;-72
2021/01/09 00:29:34;;;;;;;;;;;;;;;15.18;55.73;100254.38;4874874;29;1093;-72
2021/01/09 00:32:01;;;;;;;;;;;;;;;15.14;56.08;100253.66;4858239;29;1292;-74
2021/01/09 00:34:28;;;;;;;;;;;;;;;15.15;56.32;100260.63;4875298;29;824;-73
2021/01/09 00:36:54;;;;;;;;;;;;;;;15.13;56.10;100259.00;4875075;29;1385;-73
2021/01/09 00:39:20;;;;;;;;;;;;;;;15.12;55.74;100259.94;4866025;29;1911;-73
2021/01/09 00:41:46;;;;;;;;;;;;;;;15.12;55.95;100245.03;4857115;29;1306;-73
2021/01/09 00:44:12;;;;;;;;;;;;;;;15.07;55.73;100240.94;4859880;29;1053;-72
2021/01/09 00:46:39;;;;;;;;;;;;;;;15.07;56.03;100236.56;4857536;29;1190;-73
2021/01/09 00:49:05;;;;;;;;;;;;;;;15.06;55.99;100228.75;4868632;29;1358;-74
2021/01/09 00:51:31;;;;;;;;;;;;;;;15.05;55.96;100213.94;4887781;29;1262;-74
2021/01/09 00:53:57;;;;;;;;;;;;;;;15.01;55.94;100213.25;4873848;29;1227;-74
2021/01/09 00:56:24;;;;;;;;;;;;;;;15.04;55.92;100209.63;4872051;29;1167;-73
2021/01/09 00:58:50;;;;;;;;;;;;;;;15.05;56.04;100211.31;4872908;29;1982;-73
2021/01/09 01:01:16;;;;;;;;;;;;;;;15.01;55.85;100191.41;4874806;29;1116;-73
2021/01/09 01:03:43;;;;;;;;;;;;;;;15.01;55.85;100194.03;4875959;29;1332;-73
2021/01/09 01:06:09;;;;;;;;;;;;;;;15.02;55.77;100190.47;4874348;29;1387;-73
2021/01/09 01:08:36;;;;;;;;;;;;;;;14.99;55.61;100201.13;4875692;29;1238;-73
2021/01/09 01:11:02;;;;;;;;;;;;;;;14.99;55.90;100195.88;4875768;29;1291;-74
2021/01/09 01:13:28;;;;;;;;;;;;;;;14.99;55.98;100191.47;4875538;29;1211;-72
2021/01/09 01:15:58;;;;;;;;;;;;;;;14.98;55.93;100194.19;4876062;29;1043;-72
2021/01/09 01:18:25;;;;;;;;;;;;;;;14.97;55.89;100192.47;4875328;29;1912;-72
2021/01/09 01:20:51;;;;;;;;;;;;;;;14.96;55.94;100180.28;4875726;29;1176;-74
2021/01/09 01:23:18;;;;;;;;;;;;;;;14.94;56.08;100171.66;4874006;29;1317;-74
2021/01/09 01:25:45;;;;;;;;;;;;;;;14.96;55.83;100164.56;4875578;29;980;-74
2021/01/09 01:28:11;;;;;;;;;;;;;;;14.94;55.70;100158.53;4873796;29;1223;-74
2021/01/09 01:30:38;;;;;;;;;;;;;;;14.92;56.02;100161.25;4875414;29;1047;-72
2021/01/09 01:33:04;;;;;;;;;;;;;;;14.92;56.70;100152.53;4875339;29;1238;-72
2021/01/09 01:35:31;;;;;;;;;;;;;;;14.90;55.83;100141.25;4875209;29;1072;-71
2021/01/09 01:37:57;;;;;;;;;;;;;;;14.87;56.11;100138.78;4875141;29;1947;-73
2021/01/09 01:40:24;;;;;;;;;;;;;;;14.88;56.01;100140.50;4873937;29;1022;-72
2021/01/09 01:42:51;;;;;;;;;;;;;;;14.90;55.75;100154.38;4874087;29;1327;-71
2021/01/09 01:45:17;;;;;;;;;;;;;;;14.87;56.14;100176.34;4875277;29;1047;-72
2021/01/09 01:47:44;;;;;;;;;;;;;;;14.86;56.18;100164.19;4875161;29;1242;-71
2021/01/09 01:50:11;;;;;;;;;;;;;;;14.85;56.14;100161.63;4875261;29;1142;-71
2021/01/09 01:52:38;;;;;;;;;;;;;;;14.80;55.91;100150.53;4858448;29;1227;-71
2021/01/09 01:55:05;;;;;;;;;;;;;;;14.78;56.05;100143.56;4875049;29;949;-71
2021/01/09 01:57:32;;;;;;;;;;;;;;;14.80;56.32;100147.91;4874552;29;1907;-71
2021/01/09 01:59:58;;;;;;;;;;;;;;;14.80;55.97;100153.16;4873748;29;1307;-73
2021/01/09 02:02:24;;;;;;;;;;;;;;;14.77;56.08;100175.97;4875074;29;1254;-73
2021/01/09 02:05:01;;;;;;;;;;;;;;;14.76;56.04;100179.53;4875011;29;977;-72
2021/01/09 02:07:30;;;;;;;;;;;;;;;14.72;56.35;100188.44;4874278;29;1266;-71
2021/01/09 02:09:57;;;;;;;;;;;;;;;14.76;56.07;100190.00;4874004;29;1041;-75
2021/01/09 02:12:42;;;;;;;;;;;;;;;14.72;56.08;100175.34;4874978;29;1234;-75
2021/01/09 02:15:09;;;;;;;;;;;;;;;14.73;56.16;100169.19;4874975;29;1567;-74
2021/01/09 02:17:36;;;;;;;;;;;;;;;14.68;56.29;100176.41;4874838;29;1935;-75
2021/01/09 02:20:03;;;;;;;;;;;;;;;14.68;56.20;100176.41;4875147;29;1030;-74
2021/01/09 02:22:44;;;;;;;;;;;;;;;14.64;56.17;100169.63;4874937;29;1230;-74
2021/01/09 02:25:11;;;;;;;;;;;;;;;14.63;56.25;100167.06;4875060;29;1056;-74
2021/01/09 02:27:38;;;;;;;;;;;;;;;14.64;56.33;100146.03;4875251;29;1219;-73
2021/01/09 02:30:04;;;;;;;;;;;;;;;14.62;56.37;100134.75;4875071;29;1108;-74
2021/01/09 02:32:36;;;;;;;;;;;;;;;14.62;56.38;100121.66;4857818;29;1261;-75
2021/01/09 02:35:02;;;;;;;;;;;;;;;14.62;56.54;100105.94;4875022;29;1062;-74
2021/01/09 02:37:29;;;;;;;;;;;;;;;14.59;56.46;100108.72;4873330;29;1910;-73
2021/01/09 02:39:56;;;;;;;;;;;;;;;14.60;56.48;100105.16;4876101;29;1075;-75
2021/01/09 02:42:22;;;;;;;;;;;;;;;14.62;56.50;100119.03;4878192;29;1335;-74
2021/01/09 02:44:50;;;;;;;;;;;;;;;14.57;56.63;100130.69;4878050;29;1183;-72
2021/01/09 02:47:16;;;;;;;;;;;;;;;14.56;56.50;100129.81;4878454;29;1313;-75
2021/01/09 02:49:44;;;;;;;;;;;;;;;14.55;56.94;100135.16;4861806;29;1396;-75
2021/01/09 02:52:10;;;;;;;;;;;;;;;14.54;56.52;100136.94;4878622;29;1270;-73
2021/01/09 02:54:38;;;;;;;;;;;;;;;14.53;56.70;100129.97;4878568;29;847;-75
2021/01/09 02:57:05;;;;;;;;;;;;;;;14.50;56.72;100103.91;4878027;29;1254;-76
2021/01/09 02:59:31;;;;;;;;;;;;;;;14.49;56.79;100097.00;4860990;29;1919;-74
2021/01/09 03:01:57;;;;;;;;;;;;;;;14.50;56.63;100093.44;4861437;29;1410;-75
2021/01/09 03:04:24;;;;;;;;;;;;;;;14.49;56.87;100086.53;4878010;29;812;-74
2021/01/09 03:06:50;;;;;;;;;;;;;;;14.48;56.67;100081.34;4878372;29;1315;-73
2021/01/09 03:09:16;;;;;;;;;;;;;;;14.49;56.95;100078.66;4878104;29;800;-73
2021/01/09 03:11:43;;;;;;;;;;;;;;;14.45;57.00;100064.00;4878319;29;1081;-74
2021/01/09 03:14:09;;;;;;;;;;;;;;;14.44;56.70;100075.41;4877284;29;1278;-73
2021/01/09 03:16:35;;;;;;;;;;;;;;;14.45;56.82;100064.00;4878181;29;1004;-73
2021/01/09 03:19:01;;;;;;;;;;;;;;;14.45;56.79;100048.28;4877460;29;1923;-73
2021/01/09 03:21:28;;;;;;;;;;;;;;;14.46;56.93;100062.22;4877905;29;1055;-73
2021/01/09 03:23:55;;;;;;;;;;;;;;;14.38;56.85;100057.34;4877454;29;1235;-73
2021/01/09 03:26:25;;;;;;;;;;;;;;;14.41;57.00;100062.44;4878044;29;1118;-73
2021/01/09 03:28:51;;;;;;;;;;;;;;;14.38;57.09;100051.28;4877427;29;1302;-73
2021/01/09 03:31:18;;;;;;;;;;;;;;;14.38;57.00;100061.78;4877653;29;1143;-72
2021/01/09 03:33:44;;;;;;;;;;;;;;;14.33;57.07;100054.13;4877554;29;1328;-73
2021/01/09 03:36:10;;;;;;;;;;;;;;;14.38;57.00;100059.97;4877991;29;1102;-73
2021/01/09 03:38:37;;;;;;;;;;;;;;;14.34;56.87;100047.13;4876027;29;1984;-73
2021/01/09 03:41:04;;;;;;;;;;;;;;;14.35;56.74;100039.16;4877523;29;905;-72
2021/01/09 03:43:32;;;;;;;;;;;;;;;14.32;56.98;100047.16;4877121;29;1227;-73
2021/01/09 03:45:58;;;;;;;;;;;;;;;14.32;57.00;100033.22;4876678;29;1045;-74
2021/01/09 03:48:25;;;;;;;;;;;;;;;14.32;57.13;100033.22;4876446;29;1227;-74
2021/01/09 03:50:52;;;;;;;;;;;;;;;14.32;57.13;100026.19;4877524;29;1037;-74
2021/01/09 03:53:18;;;;;;;;;;;;;;;14.32;57.01;100025.38;4876891;29;1246;-72
2021/01/09 03:55:44;;;;;;;;;;;;;;;14.29;57.19;100005.38;4860347;29;1349;-73
2021/01/09 03:58:10;;;;;;;;;;;;;;;14.26;57.35;100000.28;4877089;29;1919;-72
2021/01/09 04:00:37;;;;;;;;;;;;;;;14.25;57.05;99988.13;4877041;29;1112;-74
2021/01/09 04:03:03;;;;;;;;;;;;;;;14.23;57.56;99997.81;4876506;29;1331;-72
2021/01/09 04:05:30;;;;;;;;;;;;;;;14.24;57.17;99996.91;4859660;29;1434;-72
2021/01/09 04:07:56;;;;;;;;;;;;;;;14.20;57.51;99990.97;4876976;29;1235;-73
2021/01/09 04:10:23;;;;;;;;;;;;;;;14.25;57.42;99996.00;4860101;29;1157;-73
2021/01/09 04:12:49;;;;;;;;;;;;;;;14.27;57.38;99990.66;4859852;29;1651;-74
2021/01/09 04:15:16;;;;;;;;;;;;;;;14.23;57.25;100000.44;4876791;29;1140;-73
2021/01/09 04:17:42;;;;;;;;;;;;;;;14.20;57.22;99990.97;4876611;29;1974;-73
2021/01/09 04:20:09;;;;;;;;;;;;;;;14.20;57.24;99987.50;4876852;29;953;-73
2021/01/09 04:22:36;;;;;;;;;;;;;;;14.20;57.52;99990.13;4875416;29;1397;-74
2021/01/09 04:25:03;;;;;;;;;;;;;;;14.12;57.28;99964.31;4859954;29;1568;-74
2021/01/09 04:27:29;;;;;;;;;;;;;;;14.20;57.10;99990.97;4876561;29;1369;-73
2021/01/09 04:29:55;;;;;;;;;;;;;;;14.19;57.53;99988.44;4876433;29;1123;-72
2021/01/09 04:32:21;;;;;;;;;;;;;;;14.16;57.40;99980.75;4859321;29;1281;-72
2021/01/09 04:34:49;;;;;;;;;;;;;;;14.18;57.45;99982.34;4875863;29;1034;-72
2021/01/09 04:37:15;;;;;;;;;;;;;;;14.15;57.36;99982.50;4874550;29;1312;-73
2021/01/09 04:39:41;;;;;;;;;;;;;;;14.16;57.53;99978.13;4875675;29;1915;-73
2021/01/09 04:42:08;;;;;;;;;;;;;;;14.15;57.31;99972.03;4876367;29;1244;-74
2021/01/09 04:44:35;;;;;;;;;;;;;;;14.15;57.56;99971.19;4876101;29;1062;-73
2021/01/09 04:47:02;;;;;;;;;;;;;;;14.14;57.55;99961.63;4873831;29;1298;-73
2021/01/09 04:49:29;;;;;;;;;;;;;;;14.11;57.43;99957.38;4859142;29;1224;-73
2021/01/09 04:52:00;;;;;;;;;;;;;;;14.13;57.46;99962.56;4876293;29;1254;-72
2021/01/09 04:54:26;;;;;;;;;;;;;;;14.08;57.67;99956.69;4875694;29;844;-71
2021/01/09 04:56:53;;;;;;;;;;;;;;;14.09;57.67;99948.75;4876357;29;1367;-73
2021/01/09 04:59:20;;;;;;;;;;;;;;;14.11;57.47;99960.00;4876232;29;1919;-72
2021/01/09 05:01:48;;;;;;;;;;;;;;;14.09;57.88;99958.38;4875689;29;1242;-72
2021/01/09 05:04:15;;;;;;;;;;;;;;;14.08;57.81;99960.16;4875953;29;855;-72
2021/01/09 05:06:42;;;;;;;;;;;;;;;14.09;57.93;99961.00;4876267;29;1195;-72
2021/01/09 05:09:10;;;;;;;;;;;;;;;14.09;57.83;99955.78;4858864;29;1753;-73
2021/01/09 05:11:37;;;;;;;;;;;;;;;14.09;57.74;99955.78;4859125;29;1303;-72
2021/01/09 05:14:04;;;;;;;;;;;;;;;14.09;57.92;99963.63;4875609;29;1235;-72
2021/01/09 05:16:31;;;;;;;;;;;;;;;14.07;58.02;99968.09;4875695;29;1624;-72
2021/01/09 05:18:59;;;;;;;;;;;;;;;14.07;58.17;99968.09;4875674;29;1923;-72
2021/01/09 05:21:27;;;;;;;;;;;;;;;14.06;58.06;99966.41;4875988;29;921;-72
2021/01/09 05:24:04;;;;;;;;;;;;;;;14.04;57.81;99963.03;4858953;29;1300;-72
2021/01/09 05:26:30;;;;;;;;;;;;;;;14.03;57.89;99966.56;4875873;29;1100;-72
2021/01/09 05:28:58;;;;;;;;;;;;;;;14.04;58.05;99969.06;4875312;29;1301;-73
2021/01/09 05:31:26;;;;;;;;;;;;;;;14.04;58.14;99970.88;4875722;29;1032;-73
2021/01/09 05:33:53;;;;;;;;;;;;;;;14.02;57.98;99988.41;4874021;29;1314;-73
2021/01/09 05:36:20;;;;;;;;;;;;;;;14.02;58.00;99986.66;4875284;29;1085;-72
2021/01/09 05:38:46;;;;;;;;;;;;;;;14.03;58.30;99979.63;4858584;29;1891;-72
2021/01/09 05:41:18;;;;;;;;;;;;;;;14.03;58.20;99979.63;4874030;29;1186;-73
2021/01/09 05:44:02;;;;;;;;;;;;;;;14.01;58.25;99974.47;4875232;29;1269;-73
2021/01/09 05:46:29;;;;;;;;;;;;;;;14.02;58.09;99970.09;4875389;29;1050;-71
2021/01/09 05:48:56;;;;;;;;;;;;;;;14.00;58.18;99971.94;4875153;29;1175;-73
2021/01/09 05:51:38;;;;;;;;;;;;;;;14.03;58.05;99966.56;4875543;29;1066;-73
2021/01/09 05:54:05;;;;;;;;;;;;;;;14.00;58.20;99967.56;4858531;29;1313;-73
2021/01/09 05:56:34;;;;;;;;;;;;;;;14.00;58.09;99969.31;4875611;29;1071;-73
2021/01/09 05:59:00;;;;;;;;;;;;;;;13.99;57.99;99970.22;4874057;29;1994;-75
2021/01/09 06:01:28;;;;;;;;;;;;;;;13.99;58.37;99976.31;4875243;29;1586;-76
2021/01/09 06:04:03;;;;;;;;;;;;;;;13.97;58.42;99978.19;4861502;29;1436;-76
2021/01/09 06:06:44;;;;;;;;;;;;;;;13.99;58.40;99978.09;4840274;29;1336;-75
2021/01/09 06:09:13;;;;;;;;;;;;;;;13.98;58.51;99979.03;4872661;29;745;-75
2021/01/09 06:11:41;;;;;;;;;;;;;;;13.97;58.41;99987.81;4875432;29;1086;-74
2021/01/09 06:14:08;;;;;;;;;;;;;;;13.96;58.21;99980.84;4875364;29;1263;-74
2021/01/09 06:16:35;;;;;;;;;;;;;;;13.94;58.76;99986.19;4879148;29;1141;-76
2021/01/09 06:19:02;;;;;;;;;;;;;;;13.98;58.69;99994.75;4878778;29;1943;-76
2021/01/09 06:21:29;;;;;;;;;;;;;;;13.96;58.55;99997.41;4879092;29;1060;-73
2021/01/09 06:23:57;;;;;;;;;;;;;;;13.96;58.27;99999.19;4878843;29;1235;-74
2021/01/09 06:26:23;;;;;;;;;;;;;;;13.98;58.35;100010.44;4879099;29;1067;-76
2021/01/09 06:29:00;;;;;;;;;;;;;;;13.97;58.43;100009.59;4878645;29;1316;-75
2021/01/09 06:31:30;;;;;;;;;;;;;;;13.96;58.46;100009.66;4878884;29;943;-76
2021/01/09 06:34:00;;;;;;;;;;;;;;;13.94;58.42;100012.38;4861505;29;1301;-75
2021/01/09 06:36:26;;;;;;;;;;;;;;;13.94;58.78;100016.75;4879004;29;956;-75
2021/01/09 06:38:57;;;;;;;;;;;;;;;13.93;58.55;100013.28;4878538;29;1911;-74
2021/01/09 06:41:24;;;;;;;;;;;;;;;13.91;58.95;100016.91;4878493;29;1044;-77
2021/01/09 06:43:53;;;;;;;;;;;;;;;13.90;58.57;100012.56;4878587;29;1308;-76
2021/01/09 06:46:25;;;;;;;;;;;;;;;13.89;58.80;100011.72;4878518;29;1081;-76
2021/01/09 06:48:52;;;;;;;;;;;;;;;13.92;58.68;100014.19;4878544;29;1223;-73
2021/01/09 06:51:34;;;;;;;;;;;;;;;13.91;58.60;100014.28;4878533;29;1139;-75
2021/01/09 06:54:12;;;;;;;;;;;;;;;13.88;58.45;100009.19;4878114;29;1313;-75
2021/01/09 06:57:04;;;;;;;;;;;;;;;13.93;58.35;99994.09;4878599;29;1043;-74
2021/01/09 06:59:37;;;;;;;;;;;;;;;13.88;58.54;99993.47;4870757;29;1903;-74
2021/01/09 07:02:09;;;;;;;;;;;;;;;13.87;58.67;99994.41;4878422;29;1350;-73
2021/01/09 07:04:51;;;;;;;;;;;;;;;13.88;58.58;99996.09;4878564;29;885;-74
2021/01/09 07:07:37;;;;;;;;;;;;;;;13.85;58.50;99994.47;4861436;29;1332;-73
2021/01/09 07:10:23;;;;;;;;;;;;;;;13.88;58.58;99994.34;4861417;29;1295;-74
2021/01/09 07:12:52;;;;;;;;;;;;;;;13.87;58.53;99991.78;4877622;29;1287;-73
2021/01/09 07:15:19;;;;;;;;;;;;;;;13.88;58.63;99988.25;4877674;29;1126;-73
2021/01/09 07:17:53;;;;;;;;;;;;;;;13.87;58.78;99986.53;4876317;29;1659;-74
2021/01/09 07:20:21;;;;;;;;;;;;;;;13.86;58.56;99979.63;4861134;29;1157;-74
2021/01/09 07:22:52;;;;;;;;;;;;;;;13.86;58.90;99984.88;4877729;29;1341;-74
2021/01/09 07:25:22;;;;;;;;;;;;;;;13.87;58.53;99970.84;4877176;29;1072;-73
2021/01/09 07:27:50;;;;;;;;;;;;;;;13.87;58.77;99987.41;4877467;29;1270;-73
2021/01/09 07:30:17;;;;;;;;;;;;;;;13.85;58.60;99986.63;4876195;29;1144;-74
2021/01/09 07:32:47;;;;;;;;;;;;;;;13.84;58.80;99986.69;4877406;29;1183;-74
2021/01/09 07:35:21;;;;;;;;;;;;;;;13.83;59.05;99987.63;4877538;29;1056;-72
2021/01/09 07:37:50;;;;;;;;;;;;;;;13.84;58.64;99998.00;4877340;29;1191;-75
2021/01/09 07:40:18;;;;;;;;;;;;;;;13.86;58.66;100000.56;4860274;29;1988;-73
2021/01/09 07:42:45;;;;;;;;;;;;;;;13.83;58.83;100005.97;4877462;29;1309;-74
2021/01/09 07:45:12;;;;;;;;;;;;;;;13.81;58.52;100010.41;4877002;29;1045;-76
2021/01/09 07:47:40;;;;;;;;;;;;;;;13.79;58.63;100007.00;4877525;29;1242;-74
2021/01/09 07:50:08;;;;;;;;;;;;;;;13.81;59.08;100006.00;4877311;29;982;-74
2021/01/09 07:52:34;;;;;;;;;;;;;;;13.79;58.70;100009.63;4860081;29;1328;-74
2021/01/09 07:55:01;;;;;;;;;;;;;;;13.81;58.83;100013.00;4877433;29;858;-74
2021/01/09 07:57:27;;;;;;;;;;;;;;;13.80;58.99;100017.41;4877824;29;1246;-73
2021/01/09 07:59:53;;;;;;;;;;;;;;;13.78;59.03;100024.50;4860693;29;1941;-74
2021/01/09 08:02:23;;;;;;;;;;;;;;;13.80;58.66;100032.28;4877453;29;1226;-74
2021/01/09 08:04:50;;;;;;;;;;;;;;;13.78;59.20;100021.88;4877048;29;1108;-74
2021/01/09 08:07:19;;;;;;;;;;;;;;;13.78;59.25;100036.72;4876930;29;1240;-73
2021/01/09 08:09:45;;;;;;;;;;;;;;;13.79;58.85;100036.66;4877006;29;792;-73
2021/01/09 08:12:11;;;;;;;;;;;;;;;13.78;58.75;100047.19;4876816;29;1231;-73
2021/01/09 08:14:37;;;;;;;;;;;;;;;13.81;58.88;100040.03;4876683;29;859;-72
2021/01/09 08:17:10;;;;;;;;;;;;;;;13.77;58.69;100056.81;4876919;29;1261;-74
2021/01/09 08:19:37;;;;;;;;;;;;;;;13.76;58.94;100078.69;4876566;29;1907;-73
2021/01/09 08:22:04;;;;;;;;;;;;;;;13.74;58.75;100059.56;4876394;29;1305;-74
2021/01/09 08:24:31;;;;;;;;;;;;;;;13.75;59.14;100070.91;4877036;29;773;-74
2021/01/09 08:26:57;;;;;;;;;;;;;;;13.74;58.77;100077.91;4876936;29;1243;-74
2021/01/09 08:29:24;;;;;;;;;;;;;;;13.75;59.04;100079.59;4876481;29;915;-74
2021/01/09 08:31:51;;;;;;;;;;;;;;;13.75;58.88;100076.97;4876238;29;1305;-73
2021/01/09 08:34:23;;;;;;;;;;;;;;;13.74;59.21;100077.91;4876230;29;846;-74
2021/01/09 08:36:52;;;;;;;;;;;;;;;13.73;59.03;100084.06;4875429;29;1223;-73
2021/01/09 08:39:19;;;;;;;;;;;;;;;13.74;59.06;100084.94;4876247;29;1968;-75
2021/01/09 08:41:47;;;;;;;;;;;;;;;13.74;58.97;100077.06;4875961;29;1206;-73
2021/01/09 08:44:15;;;;;;;;;;;;;;;13.78;59.04;100087.31;4859228;29;1332;-74
2021/01/09 08:46:42;;;;;;;;;;;;;;;13.81;58.90;100078.47;4875935;29;1214;-74
2021/01/09 08:49:35;;;;;;;;;;;;;;;13.79;59.29;100099.50;4876437;29;1360;-75
2021/01/09 08:52:06;;;;;;;;;;;;;;;13.80;59.31;100095.13;4875717;29;1459;-74
2021/01/09 08:54:33;;;;;;;;;;;;;;;13.77;59.49;100096.06;4875743;29;738;-75
2021/01/09 08:57:01;;;;;;;;;;;;;;;13.78;59.18;100089.94;4875572;29;1359;-76
2021/01/09 08:59:33;;;;;;;;;;;;;;;13.78;59.53;100091.69;4875016;29;1911;-76
2021/01/09 09:02:04;;;;;;;;;;;;;;;13.77;59.48;100097.88;4875804;29;1377;-75
2021/01/09 09:04:31;;;;;;;;;;;;;;;13.76;59.51;100098.78;4874455;29;863;-77
2021/01/09 09:07:00;;;;;;;;;;;;;;;13.74;59.34;100100.63;4858605;29;1246;-76
2021/01/09 09:09:28;;;;;;;;;;;;;;;13.75;59.34;100087.47;4858813;29;1293;-76
2021/01/09 09:11:54;;;;;;;;;;;;;;;13.77;59.42;100095.25;4875727;29;1248;-78
2021/01/09 09:14:21;;;;;;;;;;;;;;;13.76;59.43;100088.31;4876033;29;1003;-75
2021/01/09 09:17:08;;;;;;;;;;;;;;;13.75;59.60;100081.38;4875509;29;1267;-74
2021/01/09 09:19:38;;;;;;;;;;;;;;;13.75;59.69;100092.69;4875252;29;1939;-76
2021/01/09 09:22:04;;;;;;;;;;;;;;;13.73;59.97;100114.63;4875139;29;1337;-76
2021/01/09 09:24:44;;;;;;;;;;;;;;;13.74;60.12;100080.50;4875486;29;745;-73
2021/01/09 09:27:30;;;;;;;;;;;;;;;13.74;59.67;100084.94;4874156;29;1341;-75
2021/01/09 09:30:25;;;;;;;;;;;;;;;13.73;59.52;100075.38;4875920;29;1034;-74
2021/01/09 09:32:52;;;;;;;;;;;;;;;13.75;59.66;100084.84;4862976;29;1340;-73
2021/01/09 09:35:18;;;;;;;;;;;;;;;13.74;59.60;100079.69;4875179;29;847;-73
2021/01/09 09:37:45;;;;;;;;;;;;;;;13.75;59.64;100081.38;4858797;29;1361;-74
2021/01/09 09:40:21;;;;;;;;;;;;;;;13.76;59.51;100077.84;4874978;29;1977;-77
2021/01/09 09:42:47;;;;;;;;;;;;;;;13.73;59.73;100081.44;4874867;29;1254;-76
2021/01/09 09:45:16;;;;;;;;;;;;;;;13.73;59.57;100083.22;4875037;29;772;-72
2021/01/09 09:47:46;;;;;;;;;;;;;;;13.75;59.46;100078.75;4858064;29;1268;-73
2021/01/09 09:50:17;;;;;;;;;;;;;;;13.74;59.74;100069.22;4875018;29;757;-74
2021/01/09 09:52:43;;;;;;;;;;;;;;;13.74;59.74;100090.16;4875597;29;1262;-73
2021/01/09 09:55:09;;;;;;;;;;;;;;;13.71;59.97;100074.59;4875165;29;905;-75
2021/01/09 09:57:37;;;;;;;;;;;;;;;13.71;59.77;100087.69;4873703;29;1234;-79
2021/01/09 10:00:07;;;;;;;;;;;;;;;13.70;59.70;100084.22;4843020;29;1976;-77
2021/01/09 10:02:36;;;;;;;;;;;;;;;13.71;59.72;100092.91;4857835;29;1356;-76
2021/01/09 10:05:13;;;;;;;;;;;;;;;13.69;59.80;100095.59;4858486;29;802;-74
2021/01/09 10:07:39;;;;;;;;;;;;;;;13.79;59.43;100082.94;4874762;29;1241;-71
2021/01/09 10:10:18;;;;;;;;;;;;;;;13.89;59.70;100089.44;4874934;29;852;-70
2021/01/09 10:12:54;;;;;;;;;;;;;;;14.05;59.16;100091.25;4874685;29;1222;-68
2021/01/09 10:15:21;;;;;;;;;;;;;;;14.08;59.34;100093.72;4874897;29;1148;-69
2021/01/09 10:17:57;;;;;;;;;;;;;;;14.22;59.05;100093.06;4874876;29;1442;-68
2021/01/09 10:20:23;;;;;;;;;;;;;;;14.31;59.06;100097.88;4873793;29;2015;-69
2021/01/09 10:22:50;;;;;;;;;;;;;;;14.38;58.60;100086.19;4875025;29;1371;-71
2021/01/09 10:25:16;;;;;;;;;;;;;;;14.51;58.80;100092.53;4875786;29;1212;-70
2021/01/09 10:27:42;;;;;;;;;;;;;;;14.62;58.29;100087.59;4875004;29;1359;-70
2021/01/09 10:30:09;;;;;;;;;;;;;;;14.76;57.96;100079.91;4858130;29;810;-68
2021/01/09 10:32:36;;;;;;;;;;;;;;;14.88;57.57;100078.41;4857533;29;1488;-68
2021/01/09 10:35:03;;;;;;;;;;;;;;;14.97;57.69;100071.84;4874160;29;1357;-68
2021/01/09 10:37:30;;;;;;;;;;;;;;;15.10;57.58;100057.16;4872611;29;1167;-68
2021/01/09 10:39:57;;;;;;;;;;;;;;;15.18;57.60;100054.97;4874654;29;1915;-68
2021/01/09 10:42:28;;;;;;;;;;;;;;;15.26;57.39;100058.03;4874403;29;1344;-71
2021/01/09 10:44:54;;;;;;;;;;;;;;;15.32;57.25;100055.94;4874441;29;1129;-69
2021/01/09 10:47:20;;;;;;;;;;;;;;;15.39;57.11;100053.84;4874693;29;1281;-70
2021/01/09 10:49:47;;;;;;;;;;;;;;;15.45;56.82;100056.13;4857545;29;1205;-70
2021/01/09 10:52:14;;;;;;;;;;;;;;;15.54;56.81;100053.03;4872308;29;1776;-68
2021/01/09 10:54:40;;;;;;;;;;;;;;;15.57;57.07;100042.38;4846867;29;1423;-70
2021/01/09 10:57:06;;;;;;;;;;;;;;;15.61;56.82;100043.91;4863993;29;1332;-70
2021/01/09 10:59:32;;;;;;;;;;;;;;;15.68;56.72;100044.44;4853775;29;1989;-69
2021/01/09 11:02:03;;;;;;;;;;;;;;;15.71;56.86;100037.22;4851339;29;1360;-66
2021/01/09 11:04:29;;;;;;;;;;;;;;;15.00;52.61;100029.72;4857788;29;1279;-68
2021/01/09 11:06:59;;;;;;;;;;;;;;;14.97;54.44;100045.63;4874616;29;1348;-68
2021/01/09 11:09:25;;;;;;;;;;;;;;;15.33;56.15;100039.28;4872200;29;1233;-68
2021/01/09 11:11:53;;;;;;;;;;;;;;;15.59;55.28;100030.03;4867596;29;1389;-69
2021/01/09 11:14:20;;;;;;;;;;;;;;;15.69;55.22;100031.19;4857834;29;1085;-68
2021/01/09 11:16:46;;;;;;;;;;;;;;;15.79;55.02;100028.91;4868756;29;1066;-68
2021/01/09 11:19:12;;;;;;;;;;;;;;;15.81;55.10;100014.75;4869875;29;2000;-68
2021/01/09 11:21:41;;;;;;;;;;;;;;;15.89;55.06;100008.25;4857020;29;1343;-66
2021/01/09 11:24:11;;;;;;;;;;;;;;;15.91;55.01;99998.47;4841369;29;1866;-66
2021/01/09 11:26:38;;;;;;;;;;;;;;;15.92;55.09;99990.53;4862010;29;1051;-66
2021/01/09 11:29:04;;;;;;;;;;;;;;;15.97;55.03;100004.25;4846334;29;1384;-66
2021/01/09 11:31:31;;;;;;;;;;;;;;;15.95;55.38;99984.25;4856165;29;1112;-65
2021/01/09 11:34:01;;;;;;;;;;;;;;;15.97;55.40;99977.13;4856163;29;1272;-65
2021/01/09 11:36:31;;;;;;;;;;;;;;;15.99;55.35;99970.03;4833224;29;1264;-67
2021/01/09 11:38:58;;;;;;;;;;;;;;;16.00;55.37;99959.41;4873679;29;1907;-68
2021/01/09 11:41:25;;;;;;;;;;;;;;;16.05;55.52;99964.41;4875905;29;1105;-68
2021/01/09 11:43:51;;;;;;;;;;;;;;;16.04;55.63;99965.34;4873077;29;1540;-66
2021/01/09 11:46:25;;;;;;;;;;;;;;;16.03;55.81;99966.25;4874127;29;1095;-69
2021/01/09 11:48:51;;;;;;;;;;;;;;;16.07;55.68;99970.41;4876055;29;1328;-66
2021/01/09 11:51:24;;;;;;;;;;;;;;;16.09;55.71;99968.53;4865930;29;1056;-66
2021/01/09 11:53:51;;;;;;;;;;;;;;;16.09;55.76;99960.66;4841007;29;1241;-68
2021/01/09 11:56:21;;;;;;;;;;;;;;;16.09;55.93;99958.03;4857330;29;1123;-68
2021/01/09 11:58:47;;;;;;;;;;;;;;;16.15;55.82;99960.28;4855490;29;1998;-67
2021/01/09 12:01:13;;;;;;;;;;;;;;;16.19;55.73;99964.44;4856237;29;765;-70
2021/01/09 12:03:39;;;;;;;;;;;;;;;16.18;56.41;99949.59;4856517;29;1305;-68
2021/01/09 12:06:06;;;;;;;;;;;;;;;16.20;57.06;99937.25;4839924;29;809;-68
2021/01/09 12:08:32;;;;;;;;;;;;;;;16.20;57.19;99932.00;4839670;29;1673;-66
2021/01/09 12:10:59;;;;;;;;;;;;;;;16.22;56.60;99909.94;4856206;29;1081;-68
2021/01/09 12:13:26;;;;;;;;;;;;;;;16.25;56.98;99899.25;4854961;29;1341;-67
2021/01/09 12:15:52;;;;;;;;;;;;;;;16.19;57.12;99911.91;4856215;29;1381;-68
2021/01/09 12:18:19;;;;;;;;;;;;;;;16.19;57.68;99906.63;4857913;29;1327;-69
2021/01/09 12:20:48;;;;;;;;;;;;;;;16.20;57.39;99889.94;4857748;29;875;-68
2021/01/09 12:23:14;;;;;;;;;;;;;;;16.22;57.08;99888.91;4858137;29;1232;-67
2021/01/09 12:25:41;;;;;;;;;;;;;;;16.22;56.41;99882.81;4866435;29;1604;-69
2021/01/09 12:28:08;;;;;;;;;;;;;;;16.23;56.00;99872.19;4876171;29;1359;-66
2021/01/09 12:30:34;;;;;;;;;;;;;;;16.32;55.76;99873.44;4859289;29;1361;-65
2021/01/09 12:33:01;;;;;;;;;;;;;;;16.25;55.40;99877.38;4876383;29;1237;-66
2021/01/09 12:35:28;;;;;;;;;;;;;;;16.24;55.08;99884.41;4875818;29;1082;-66
2021/01/09 12:37:55;;;;;;;;;;;;;;;16.28;55.54;99871.94;4874686;29;1246;-68
2021/01/09 12:40:22;;;;;;;;;;;;;;;16.26;55.26;99879.06;4859493;29;1908;-69
2021/01/09 12:42:48;;;;;;;;;;;;;;;16.25;54.88;99865.06;4874146;29;1258;-72
2021/01/09 12:45:15;;;;;;;;;;;;;;;16.28;54.48;99856.16;4858901;29;1465;-66
2021/01/09 12:47:45;;;;;;;;;;;;;;;16.41;54.63;99852.69;4876157;29;1274;-69
2021/01/09 12:50:13;;;;;;;;;;;;;;;16.35;54.49;99854.84;4876375;29;856;-71
2021/01/09 12:52:39;;;;;;;;;;;;;;;16.35;54.48;99852.22;4876247;29;1356;-71
2021/01/09 12:55:06;;;;;;;;;;;;;;;16.39;54.54;99861.59;4875644;29;1066;-73
2021/01/09 12:57:36;;;;;;;;;;;;;;;16.42;53.80;99862.25;4875522;29;1230;-72